createdAt,value
2018-12-23T00:01:02.737Z,4.00
2018-12-23T00:03:30.177Z,3.90
2018-12-23T00:05:57.630Z,3.90
2018-12-23T00:08:25.088Z,3.80
2018-12-23T00:10:52.534Z,3.70
2018-12-23T00:13:19.992Z,3.70
2018-12-23T00:15:47.455Z,3.70
2018-12-23T00:18:14.929Z,3.60
2018-12-23T00:20:42.384Z,3.50
2018-12-23T00:23:09.873Z,3.50
2018-12-23T00:25:37.402Z,3.40
2018-12-23T00:28:04.900Z,3.40
2018-12-23T00:30:32.363Z,3.40
2018-12-23T00:32:59.850Z,3.40
2018-12-23T00:35:27.290Z,3.40
2018-12-23T00:37:54.753Z,3.40
2018-12-23T00:40:22.218Z,3.40
2018-12-23T00:42:49.770Z,3.40
2018-12-23T00:45:17.220Z,3.40
2018-12-23T00:47:44.697Z,3.50
2018-12-23T00:50:12.155Z,3.50
2018-12-23T00:52:39.628Z,3.60
2018-12-23T00:55:07.095Z,3.60
2018-12-23T00:57:34.556Z,3.70
2018-12-23T01:00:02.060Z,3.70
2018-12-23T01:02:29.524Z,3.70
2018-12-23T01:04:56.968Z,3.80
2018-12-23T01:07:24.444Z,3.80
2018-12-23T01:09:51.929Z,3.90
2018-12-23T01:12:19.400Z,3.90
2018-12-23T01:14:46.841Z,3.90
2018-12-23T01:17:14.360Z,3.90
2018-12-23T01:19:41.821Z,3.90
2018-12-23T01:22:09.302Z,3.90
2018-12-23T01:24:36.876Z,4.00
2018-12-23T01:27:04.328Z,4.00
2018-12-23T01:29:31.803Z,4.00
2018-12-23T01:31:59.317Z,3.90
2018-12-23T01:34:26.780Z,3.90
2018-12-23T01:36:54.241Z,3.90
2018-12-23T01:39:21.693Z,3.80
2018-12-23T01:41:49.144Z,3.80
2018-12-23T01:44:16.596Z,3.70
2018-12-23T01:46:44.304Z,3.70
2018-12-23T01:49:11.760Z,3.70
2018-12-23T01:51:39.203Z,3.70
2018-12-23T01:54:06.666Z,3.70
2018-12-23T01:56:34.143Z,3.70
2018-12-23T01:59:01.625Z,3.80
2018-12-23T02:01:29.573Z,3.80
2018-12-23T02:03:57.113Z,3.80
2018-12-23T02:06:24.602Z,3.80
2018-12-23T02:08:52.085Z,3.80
2018-12-23T02:11:19.775Z,3.80
2018-12-23T02:13:47.236Z,3.80
2018-12-23T02:16:14.711Z,3.80
2018-12-23T02:18:42.160Z,3.70
2018-12-23T02:21:09.717Z,3.80
2018-12-23T02:23:37.252Z,3.80
2018-12-23T02:26:04.736Z,3.80
2018-12-23T02:28:32.194Z,3.90
2018-12-23T02:30:59.641Z,3.90
2018-12-23T02:33:27.096Z,3.80
2018-12-23T02:35:55.801Z,3.80
2018-12-23T02:38:23.422Z,3.80
2018-12-23T02:40:50.866Z,3.90
2018-12-23T02:43:18.347Z,3.90
2018-12-23T02:45:45.823Z,3.90
2018-12-23T02:51:04.169Z,3.90
2018-12-23T02:53:31.653Z,3.90
2018-12-23T02:55:59.116Z,3.90
2018-12-23T02:58:26.589Z,3.90
2018-12-23T03:00:54.043Z,3.90
2018-12-23T03:03:21.534Z,3.90
2018-12-23T03:05:49.003Z,4.00
2018-12-23T03:08:16.499Z,3.90
2018-12-23T03:10:43.973Z,3.90
2018-12-23T03:13:11.464Z,3.90
2018-12-23T03:15:38.940Z,3.90
2018-12-23T03:18:06.419Z,3.90
2018-12-23T03:20:33.878Z,3.90
2018-12-23T03:23:01.337Z,3.90
2018-12-23T03:25:28.804Z,3.90
2018-12-23T03:27:56.264Z,3.90
2018-12-23T03:30:23.721Z,4.00
2018-12-23T03:32:51.260Z,4.00
2018-12-23T03:35:18.736Z,3.90
2018-12-23T03:37:46.193Z,3.90
2018-12-23T03:40:13.668Z,4.00
2018-12-23T03:42:41.105Z,4.00
2018-12-23T03:45:08.556Z,4.00
2018-12-23T03:47:36.028Z,4.00
2018-12-23T03:50:05.011Z,4.00
2018-12-23T03:52:32.527Z,4.00
2018-12-23T03:55:00.039Z,4.10
2018-12-23T03:57:27.510Z,4.10
2018-12-23T03:59:54.970Z,4.10
2018-12-23T04:02:22.448Z,4.10
2018-12-23T04:04:49.907Z,4.10
2018-12-23T04:07:17.355Z,4.10
2018-12-23T04:09:44.807Z,4.10
2018-12-23T04:12:12.249Z,4.10
2018-12-23T04:14:39.742Z,4.10
2018-12-23T04:17:07.202Z,4.20
2018-12-23T04:19:34.685Z,4.20
2018-12-23T04:22:02.137Z,4.20
2018-12-23T04:24:29.624Z,4.20
2018-12-23T04:26:57.075Z,4.20
2018-12-23T04:29:24.542Z,4.20
2018-12-23T04:31:52.038Z,4.20
2018-12-23T04:34:19.510Z,4.20
2018-12-23T04:36:46.972Z,4.20
2018-12-23T04:39:14.467Z,4.20
2018-12-23T04:41:41.933Z,4.20
2018-12-23T04:44:09.405Z,4.20
2018-12-23T04:46:36.938Z,4.20
2018-12-23T04:49:04.388Z,4.20
2018-12-23T04:51:31.853Z,4.30
2018-12-23T04:53:59.309Z,4.30
2018-12-23T04:56:26.765Z,4.30
2018-12-23T04:58:54.225Z,4.30
2018-12-23T05:01:21.706Z,4.30
2018-12-23T05:03:49.155Z,4.20
2018-12-23T05:06:17.913Z,4.20
2018-12-23T05:08:45.572Z,4.20
2018-12-23T05:11:13.096Z,4.20
2018-12-23T05:13:40.561Z,4.20
2018-12-23T05:16:08.046Z,4.20
2018-12-23T05:18:35.522Z,4.20
2018-12-23T05:21:03.001Z,4.20
2018-12-23T05:23:30.529Z,4.20
2018-12-23T05:25:57.992Z,4.20
2018-12-23T05:28:25.460Z,4.20
2018-12-23T05:30:52.947Z,4.20
2018-12-23T05:33:20.398Z,4.20
2018-12-23T05:35:47.856Z,4.20
2018-12-23T05:38:15.297Z,4.20
2018-12-23T05:40:42.760Z,4.20
2018-12-23T05:43:10.216Z,4.30
2018-12-23T05:45:37.673Z,4.30
2018-12-23T05:48:05.165Z,4.30
2018-12-23T05:50:32.640Z,4.30
2018-12-23T05:53:00.137Z,4.30
2018-12-23T05:55:27.190Z,4.30
2018-12-23T05:57:54.727Z,4.30
2018-12-23T06:00:22.200Z,4.20
2018-12-23T06:02:49.702Z,4.20
2018-12-23T06:05:17.140Z,4.20
2018-12-23T06:07:44.626Z,4.20
2018-12-23T06:10:12.965Z,4.20
2018-12-23T06:12:40.417Z,4.20
2018-12-23T06:15:07.891Z,4.20
2018-12-23T06:17:36.275Z,4.10
2018-12-23T06:20:04.062Z,4.10
2018-12-23T06:22:31.609Z,4.10
2018-12-23T06:24:59.084Z,4.10
2018-12-23T06:27:26.558Z,4.20
2018-12-23T06:29:54.047Z,4.30
2018-12-23T06:32:21.508Z,4.20
2018-12-23T06:34:48.958Z,4.20
2018-12-23T06:37:16.436Z,4.30
2018-12-23T06:39:43.881Z,4.30
2018-12-23T06:42:11.341Z,4.30
2018-12-23T06:44:38.828Z,4.40
2018-12-23T06:47:06.266Z,4.40
2018-12-23T06:49:33.838Z,4.40
2018-12-23T06:52:01.298Z,4.40
2018-12-23T06:54:29.024Z,4.40
2018-12-23T06:56:56.473Z,4.30
2018-12-23T06:59:23.937Z,4.30
2018-12-23T07:01:51.426Z,4.20
2018-12-23T07:04:18.881Z,4.20
2018-12-23T07:06:46.320Z,4.20
2018-12-23T07:09:13.783Z,4.20
2018-12-23T07:11:41.230Z,4.20
2018-12-23T07:14:08.679Z,4.20
2018-12-23T07:16:36.149Z,4.20
2018-12-23T07:19:03.631Z,4.20
2018-12-23T07:21:31.093Z,4.30
2018-12-23T07:23:58.576Z,4.30
2018-12-23T07:26:26.033Z,4.30
2018-12-23T07:28:53.481Z,4.30
2018-12-23T07:31:20.968Z,4.40
2018-12-23T07:33:48.429Z,4.40
2018-12-23T07:36:15.895Z,4.40
2018-12-23T07:38:43.370Z,4.40
2018-12-23T07:41:10.843Z,4.40
2018-12-23T07:43:38.312Z,4.40
2018-12-23T07:46:05.872Z,4.50
2018-12-23T07:48:33.350Z,4.50
2018-12-23T07:51:00.809Z,4.50
2018-12-23T07:53:28.258Z,4.60
2018-12-23T07:55:55.713Z,4.60
2018-12-23T07:58:23.179Z,4.60
2018-12-23T08:00:50.655Z,4.60
2018-12-23T08:03:18.093Z,4.60
2018-12-23T08:05:45.579Z,4.60
2018-12-23T08:08:13.054Z,4.60
2018-12-23T08:10:40.521Z,4.60
2018-12-23T08:13:07.984Z,4.60
2018-12-23T08:15:35.484Z,4.60
2018-12-23T08:18:02.960Z,4.60
2018-12-23T08:20:30.424Z,4.70
2018-12-23T08:22:58.564Z,4.60
2018-12-23T08:25:26.022Z,4.70
2018-12-23T08:27:53.505Z,4.70
2018-12-23T08:30:20.966Z,4.70
2018-12-23T08:32:48.477Z,4.80
2018-12-23T08:35:15.921Z,4.80
2018-12-23T08:37:44.686Z,4.80
2018-12-23T08:40:12.462Z,4.80
2018-12-23T08:42:39.942Z,4.80
2018-12-23T08:45:07.443Z,4.80
2018-12-23T08:47:34.937Z,4.90
2018-12-23T08:50:02.436Z,4.90
2018-12-23T08:52:29.890Z,4.90
2018-12-23T08:54:57.376Z,4.90
2018-12-23T08:57:24.849Z,5.00
2018-12-23T08:59:52.301Z,5.00
2018-12-23T09:02:19.774Z,5.00
2018-12-23T09:04:47.253Z,5.00
2018-12-23T09:07:14.737Z,5.10
2018-12-23T09:09:42.204Z,5.10
2018-12-23T09:12:09.994Z,5.10
2018-12-23T09:14:37.443Z,5.20
2018-12-23T09:17:04.885Z,5.20
2018-12-23T09:19:32.352Z,5.20
2018-12-23T09:21:59.795Z,5.20
2018-12-23T09:24:31.040Z,5.20
2018-12-23T09:26:58.513Z,5.20
2018-12-23T09:29:26.477Z,5.20
2018-12-23T09:31:53.941Z,5.30
2018-12-23T09:34:21.404Z,5.30
2018-12-23T09:36:48.870Z,5.40
2018-12-23T09:39:16.345Z,5.40
2018-12-23T09:41:43.838Z,5.40
2018-12-23T09:44:11.280Z,5.40
2018-12-23T09:46:38.763Z,5.40
2018-12-23T09:49:06.274Z,5.50
2018-12-23T09:51:33.743Z,5.50
2018-12-23T09:54:02.893Z,5.50
2018-12-23T09:56:30.379Z,5.50
2018-12-23T09:58:57.844Z,5.50
2018-12-23T10:01:25.314Z,5.50
2018-12-23T10:03:52.881Z,5.60
2018-12-23T10:06:20.389Z,5.60
2018-12-23T10:08:47.846Z,5.60
2018-12-23T10:11:21.190Z,5.60
2018-12-23T10:13:49.558Z,5.60
2018-12-23T10:16:17.442Z,5.60
2018-12-23T10:18:44.888Z,5.60
2018-12-23T10:23:45.238Z,5.60
2018-12-23T10:26:12.701Z,5.60
2018-12-23T10:28:40.157Z,5.60
2018-12-23T10:31:08.613Z,5.60
2018-12-23T10:33:36.088Z,5.70
2018-12-23T10:36:04.533Z,5.80
2018-12-23T10:38:32.164Z,5.80
2018-12-23T10:41:00.654Z,5.80
2018-12-23T10:43:28.165Z,5.90
2018-12-23T10:45:55.839Z,6.00
2018-12-23T10:48:23.328Z,6.00
2018-12-23T10:50:50.837Z,5.90
2018-12-23T10:53:18.343Z,6.00
2018-12-23T10:55:45.799Z,6.00
2018-12-23T10:58:13.254Z,6.00
2018-12-23T11:00:40.722Z,6.00
2018-12-23T11:03:08.223Z,6.00
2018-12-23T11:05:35.689Z,6.10
2018-12-23T11:08:03.186Z,6.00
2018-12-23T11:10:30.929Z,6.00
2018-12-23T11:12:58.455Z,5.90
2018-12-23T11:15:25.942Z,5.80
2018-12-23T11:17:53.549Z,5.80
2018-12-23T11:20:21.024Z,5.70
2018-12-23T11:22:48.721Z,5.70
2018-12-23T11:25:16.193Z,5.70
2018-12-23T11:27:43.751Z,5.70
2018-12-23T11:30:11.318Z,5.70
2018-12-23T11:32:38.896Z,5.70
2018-12-23T11:35:06.479Z,5.60
2018-12-23T11:37:35.854Z,5.70
2018-12-23T11:40:04.964Z,5.70
2018-12-23T11:42:32.408Z,5.70
2018-12-23T11:45:00.840Z,5.80
2018-12-23T11:47:28.379Z,5.80
2018-12-23T11:49:55.866Z,5.90
2018-12-23T11:52:23.339Z,6.00
2018-12-23T11:54:50.800Z,6.10
2018-12-23T11:57:18.295Z,6.10
2018-12-23T11:59:45.817Z,6.10
2018-12-23T12:02:15.340Z,6.10
2018-12-23T12:04:42.899Z,6.00
2018-12-23T12:07:10.400Z,5.80
2018-12-23T12:09:39.778Z,5.70
2018-12-23T12:12:07.777Z,5.70
2018-12-23T12:14:35.932Z,5.60
2018-12-23T12:17:03.533Z,5.60
2018-12-23T12:19:31.043Z,5.50
2018-12-23T12:21:59.722Z,5.50
2018-12-23T12:24:27.177Z,5.50
2018-12-23T12:26:54.678Z,5.50
2018-12-23T12:29:22.137Z,5.50
2018-12-23T12:31:49.598Z,5.40
2018-12-23T12:34:17.071Z,5.40
2018-12-23T12:36:44.521Z,5.30
2018-12-23T12:39:11.977Z,5.30
2018-12-23T12:41:39.765Z,5.20
2018-12-23T12:44:07.245Z,5.10
2018-12-23T12:46:34.705Z,5.10
2018-12-23T12:49:02.282Z,5.10
2018-12-23T12:51:29.902Z,5.10
2018-12-23T12:53:57.438Z,5.10
2018-12-23T12:56:24.984Z,5.00
2018-12-23T12:58:52.644Z,5.00
2018-12-23T13:01:20.205Z,4.90
2018-12-23T13:03:47.754Z,4.90
2018-12-23T13:06:15.234Z,4.80
2018-12-23T13:08:42.669Z,4.80
2018-12-23T13:11:10.134Z,4.80
2018-12-23T13:13:37.602Z,4.80
2018-12-23T13:16:39.161Z,4.80
2018-12-23T13:19:07.688Z,4.80
2018-12-23T13:21:36.222Z,4.70
2018-12-23T13:24:04.759Z,4.70
2018-12-23T13:26:33.276Z,4.70
2018-12-23T13:29:01.942Z,4.70
2018-12-23T13:31:30.518Z,4.70
2018-12-23T13:33:59.059Z,4.70
2018-12-23T13:36:27.667Z,4.60
2018-12-23T13:38:56.257Z,4.70
2018-12-23T13:41:31.065Z,4.60
2018-12-23T13:44:23.812Z,4.60
2018-12-23T13:47:13.585Z,4.60
2018-12-23T13:50:09.150Z,4.60
2018-12-23T13:52:40.755Z,4.60
2018-12-23T13:55:18.338Z,4.50
2018-12-23T13:58:24.477Z,4.50
2018-12-23T14:01:14.111Z,4.50
2018-12-23T14:04:16.219Z,4.50
2018-12-23T14:06:56.933Z,4.50
2018-12-23T14:09:43.842Z,4.50
2018-12-23T14:12:12.429Z,4.50
2018-12-23T14:14:41.093Z,4.50
2018-12-23T14:17:13.703Z,4.40
2018-12-23T14:19:42.502Z,4.50
2018-12-23T14:22:11.100Z,4.50
2018-12-23T14:24:39.625Z,4.50
2018-12-23T14:27:08.152Z,4.50
2018-12-23T14:29:36.671Z,4.50
2018-12-23T14:32:05.280Z,4.50
2018-12-23T14:34:33.931Z,4.50
2018-12-23T14:37:02.579Z,4.50
2018-12-23T14:39:31.262Z,4.50
2018-12-23T14:42:00.086Z,4.40
2018-12-23T14:44:28.770Z,4.40
2018-12-23T14:46:57.346Z,4.40
2018-12-23T14:49:25.929Z,4.40
2018-12-23T14:51:54.474Z,4.50
2018-12-23T14:54:23.042Z,4.40
2018-12-23T14:56:51.606Z,4.40
2018-12-23T14:59:20.306Z,4.30
2018-12-23T15:01:48.890Z,4.40
2018-12-23T15:04:17.433Z,4.30
2018-12-23T15:06:45.950Z,4.30
2018-12-23T15:09:14.624Z,4.30
2018-12-23T15:11:43.360Z,4.30
2018-12-23T15:14:12.011Z,4.30
2018-12-23T15:16:40.518Z,4.30
2018-12-23T15:19:09.079Z,4.30
2018-12-23T15:21:37.587Z,4.30
2018-12-23T15:24:06.127Z,4.20
2018-12-23T15:26:34.662Z,4.30
2018-12-23T15:29:03.332Z,4.30
2018-12-23T15:31:32.294Z,4.30
2018-12-23T15:34:00.836Z,4.30
2018-12-23T15:36:29.386Z,4.30
2018-12-23T15:38:57.906Z,4.30
2018-12-23T15:41:26.693Z,4.30
2018-12-23T15:43:55.356Z,4.30
2018-12-23T15:46:23.914Z,4.30
2018-12-23T15:48:52.459Z,4.20
2018-12-23T15:51:21.583Z,4.20
2018-12-23T15:53:50.328Z,4.20
2018-12-23T15:56:18.935Z,4.20
2018-12-23T15:58:47.470Z,4.20
2018-12-23T16:01:15.997Z,4.20
2018-12-23T16:03:44.638Z,4.20
2018-12-23T16:06:13.160Z,4.30
2018-12-23T16:08:41.673Z,4.20
2018-12-23T16:11:10.212Z,4.20
2018-12-23T16:13:38.722Z,4.20
2018-12-23T16:16:07.293Z,4.10
2018-12-23T16:18:35.815Z,4.10
2018-12-23T16:21:04.362Z,4.00
2018-12-23T16:23:33.015Z,4.00
2018-12-23T16:26:01.654Z,3.90
2018-12-23T16:28:30.259Z,3.90
2018-12-23T16:30:58.795Z,3.80
2018-12-23T16:33:27.333Z,3.80
2018-12-23T16:35:55.890Z,3.80
2018-12-23T16:38:24.430Z,3.80
2018-12-23T16:40:52.963Z,3.70
2018-12-23T16:43:21.513Z,3.70
2018-12-23T16:45:50.160Z,3.70
2018-12-23T16:48:18.740Z,3.80
2018-12-23T16:50:47.265Z,3.80
2018-12-23T16:53:15.795Z,3.90
2018-12-23T16:55:44.400Z,3.90
2018-12-23T16:58:12.991Z,3.90
2018-12-23T17:00:41.607Z,3.90
2018-12-23T17:03:10.311Z,3.90
2018-12-23T17:05:38.932Z,3.90
2018-12-23T17:08:07.449Z,4.00
2018-12-23T17:10:36.252Z,4.00
2018-12-23T17:13:04.869Z,4.00
2018-12-23T17:15:33.744Z,4.00
2018-12-23T17:18:02.327Z,4.00
2018-12-23T17:20:31.102Z,4.00
2018-12-23T17:22:59.713Z,3.90
2018-12-23T17:25:28.258Z,3.90
2018-12-23T17:27:56.866Z,3.90
2018-12-23T17:30:25.391Z,3.90
2018-12-23T17:32:53.940Z,3.90
2018-12-23T17:35:22.457Z,3.90
2018-12-23T17:37:51.021Z,3.90
2018-12-23T17:40:19.626Z,4.00
2018-12-23T17:42:48.251Z,4.00
2018-12-23T17:45:17.097Z,4.00
2018-12-23T17:47:45.673Z,4.00
2018-12-23T17:50:14.256Z,4.00
2018-12-23T17:52:43.034Z,4.00
2018-12-23T17:55:11.638Z,4.00
2018-12-23T17:57:40.376Z,4.00
2018-12-23T18:00:09.498Z,3.90
2018-12-23T18:02:38.087Z,3.80
2018-12-23T18:05:06.676Z,3.90
2018-12-23T18:07:35.486Z,3.90
2018-12-23T18:10:04.469Z,3.90
2018-12-23T18:12:33.250Z,3.80
2018-12-23T18:15:01.883Z,3.80
2018-12-23T18:17:31.690Z,3.80
2018-12-23T18:20:00.346Z,3.80
2018-12-23T18:22:28.965Z,3.70
2018-12-23T18:24:57.481Z,3.80
2018-12-23T18:27:26.905Z,3.70
2018-12-23T18:29:55.547Z,3.80
2018-12-23T18:32:24.201Z,3.70
2018-12-23T18:34:52.729Z,3.70
2018-12-23T18:37:21.652Z,3.70
2018-12-23T18:39:50.347Z,3.80
2018-12-23T18:42:18.986Z,3.90
2018-12-23T18:44:47.558Z,3.90
2018-12-23T18:47:16.074Z,3.90
2018-12-23T18:49:44.653Z,3.80
2018-12-23T18:52:13.209Z,3.80
2018-12-23T18:54:41.743Z,3.90
2018-12-23T18:57:10.295Z,3.90
2018-12-23T18:59:38.882Z,3.90
2018-12-23T19:02:07.413Z,3.80
2018-12-23T19:04:36.106Z,3.80
2018-12-23T19:07:04.771Z,3.80
2018-12-23T19:09:34.639Z,3.70
2018-12-23T19:12:41.088Z,3.70
2018-12-23T19:15:18.486Z,3.70
2018-12-23T19:17:58.927Z,3.70
2018-12-23T19:20:49.826Z,3.70
2018-12-23T19:23:21.462Z,3.70
2018-12-23T19:26:09.559Z,3.70
2018-12-23T19:28:41.277Z,3.80
2018-12-23T19:31:30.846Z,3.80
2018-12-23T19:34:02.475Z,3.70
2018-12-23T19:37:08.688Z,3.70
2018-12-23T19:39:55.469Z,3.80
2018-12-23T19:42:27.086Z,3.80
2018-12-23T19:45:18.321Z,3.70
2018-12-23T19:47:58.817Z,3.70
2018-12-23T19:50:39.234Z,3.70
2018-12-23T19:53:25.558Z,3.70
2018-12-23T19:56:21.185Z,3.70
2018-12-23T19:59:17.994Z,3.70
2018-12-23T20:02:10.366Z,3.70
2018-12-23T20:04:56.856Z,3.70
2018-12-23T20:07:37.437Z,3.70
2018-12-23T20:10:20.736Z,3.80
2018-12-23T20:13:08.941Z,3.70
2018-12-23T20:15:58.557Z,3.70
2018-12-23T20:18:30.214Z,3.70
2018-12-23T20:21:10.375Z,3.70
2018-12-23T20:24:06.395Z,3.60
2018-12-23T20:26:43.665Z,3.50
2018-12-23T20:29:33.198Z,3.40
2018-12-23T20:32:13.722Z,3.30
2018-12-23T20:34:59.959Z,3.20
2018-12-23T20:37:43.414Z,3.20
2018-12-23T20:40:47.890Z,3.10
2018-12-23T20:43:47.916Z,3.00
2018-12-23T20:46:36.729Z,2.90
2018-12-23T20:49:38.460Z,2.80
2018-12-23T20:52:25.046Z,2.80
2018-12-23T20:55:14.634Z,2.90
2018-12-23T20:58:03.958Z,2.80
2018-12-23T21:01:09.829Z,2.80
2018-12-23T21:04:14.591Z,2.80
2018-12-23T21:06:48.781Z,2.80
2018-12-23T21:09:53.607Z,2.80
2018-12-23T21:12:31.206Z,2.80
2018-12-23T21:15:11.644Z,2.90
2018-12-23T21:18:10.375Z,2.80
2018-12-23T21:20:59.883Z,2.80
2018-12-23T21:23:47.815Z,2.80
2018-12-23T21:26:43.261Z,2.80
2018-12-23T21:29:32.706Z,2.70
2018-12-23T21:32:20.696Z,2.80
2018-12-23T21:35:04.263Z,2.80
2018-12-23T21:37:39.401Z,2.90
2018-12-23T21:40:31.673Z,2.80
2018-12-23T21:43:27.019Z,2.80
2018-12-23T21:46:23.967Z,2.70
2018-12-23T21:48:55.603Z,2.70
2018-12-23T21:51:52.651Z,2.60
2018-12-23T21:54:27.066Z,2.60
2018-12-23T21:57:24.137Z,2.40
2018-12-23T22:00:04.708Z,2.30
2018-12-23T22:02:47.741Z,2.20
2018-12-23T22:05:25.501Z,2.10
2018-12-23T22:08:02.832Z,2.00
2018-12-23T22:10:40.274Z,1.90
2018-12-23T22:13:27.144Z,1.80
2018-12-23T22:15:55.727Z,1.80
2018-12-23T22:18:24.261Z,1.80
2018-12-23T22:20:52.777Z,1.80
2018-12-23T22:23:21.621Z,1.80
2018-12-23T22:25:50.182Z,1.80
2018-12-23T22:28:18.714Z,1.70
2018-12-23T22:30:47.247Z,1.70
2018-12-23T22:33:15.822Z,1.60
2018-12-23T22:35:44.347Z,1.60
2018-12-23T22:38:12.888Z,1.50
2018-12-23T22:40:41.515Z,1.50
2018-12-23T22:43:10.032Z,1.40
2018-12-23T22:45:39.473Z,1.40
2018-12-23T22:48:08.006Z,1.40
2018-12-23T22:50:36.545Z,1.40
2018-12-23T22:53:05.131Z,1.50
2018-12-23T22:55:33.719Z,1.50
2018-12-23T22:58:02.258Z,1.40
2018-12-23T23:00:31.534Z,1.40
2018-12-23T23:03:08.661Z,1.50
2018-12-23T23:05:30.325Z,1.50
2018-12-23T23:07:58.897Z,1.50
2018-12-23T23:10:27.414Z,1.50
2018-12-23T23:12:55.930Z,1.50
2018-12-23T23:15:24.493Z,1.40
2018-12-23T23:17:53.095Z,1.50
2018-12-23T23:20:21.623Z,1.50
2018-12-23T23:22:50.141Z,1.50
2018-12-23T23:25:18.685Z,1.50
2018-12-23T23:27:47.225Z,1.50
2018-12-23T23:30:15.749Z,1.40
2018-12-23T23:32:44.298Z,1.40
2018-12-23T23:35:12.870Z,1.40
2018-12-23T23:37:41.411Z,1.40
2018-12-23T23:40:09.931Z,1.40
2018-12-23T23:42:38.463Z,1.30
2018-12-23T23:45:06.991Z,1.30
2018-12-23T23:47:35.526Z,1.30
2018-12-23T23:50:04.333Z,1.30
2018-12-23T23:52:32.862Z,1.20
2018-12-23T23:55:01.386Z,1.20
2018-12-23T23:57:30.163Z,1.10
2018-12-23T23:59:58.681Z,1.10
